| time (UTC) | temp F | wind direction | speed knots | gust knots | rain 1hr in | rain 24hr in | rain mn in | humidity % | barometer mb |
| 20260507234507 | 53 | 90 | 3.5 | 7.0 | 0.00 | 0.00 | 0.00 | 81 | 1014.3 |
| 20260507233605 | 53 | 88 | 3.5 | 7.0 | 0.00 | 0.00 | 0.00 | 81 | 1014.2 |
| 20260507232706 | 53 | 95 | 3.5 | 7.8 | 0.00 | 0.00 | 0.00 | 81 | 1014.2 |
| 20260507231805 | 53 | 94 | 3.5 | 7.8 | 0.00 | 0.00 | 0.00 | 81 | 1014.3 |
| 20260507230906 | 53 | 102 | 4.3 | 7.0 | 0.00 | 0.00 | 0.00 | 81 | 1014.5 |
| 20260507230006 | 53 | 104 | 4.3 | 7.8 | 0.00 | 0.00 | 0.00 | 80 | 1014.4 |
| 20260507225406 | 53 | 104 | 4.3 | 7.8 | 0.00 | 0.00 | 0.00 | 80 | 1014.4 |
| 20260507224506 | 53 | 98 | 4.3 | 7.0 | 0.00 | 0.00 | 0.00 | 80 | 1014.4 |
| 20260507223606 | 53 | 97 | 4.3 | 8.7 | 0.00 | 0.00 | 0.00 | 80 | 1014.4 |
| 20260507222726 | 53 | 91 | 4.3 | 8.7 | 0.00 | 0.00 | 0.00 | 80 | 1014.5 |
| 20260507221806 | 54 | 96 | 4.3 | 8.7 | 0.00 | 0.00 | 0.00 | 80 | 1014.4 |
| 20260507220905 | 54 | 94 | 4.3 | 8.7 | 0.00 | 0.00 | 0.00 | 80 | 1014.5 |
| 20260507220006 | 54 | 92 | 3.5 | 7.8 | 0.00 | 0.00 | 0.00 | 80 | 1014.5 |
| 20260507215405 | 54 | 98 | 4.3 | 7.8 | 0.00 | 0.00 | 0.00 | 80 | 1014.6 |
| 20260507214505 | 54 | 107 | 4.3 | 8.7 | 0.00 | 0.00 | 0.00 | 80 | 1014.7 |
| 20260507213605 | 54 | 112 | 3.5 | 8.7 | 0.00 | 0.00 | 0.00 | 80 | 1014.7 |
| 20260507212705 | 54 | 114 | 4.3 | 9.6 | 0.00 | 0.00 | 0.00 | 79 | 1014.7 |
| 20260507211827 | 54 | 112 | 3.5 | 7.8 | 0.00 | 0.00 | 0.00 | 79 | 1014.6 |
| 20260507210005 | 54 | 100 | 3.5 | 7.8 | 0.00 | 0.00 | 0.00 | 79 | 1014.4 |
| 20260507205405 | 54 | 106 | 4.3 | 7.8 | 0.00 | 0.00 | 0.00 | 78 | 1014.5 |
| 20260507204506 | 54 | 96 | 4.3 | 9.6 | 0.00 | 0.00 | 0.00 | 78 | 1014.5 |
| 20260507203606 | 54 | 92 | 4.3 | 7.8 | 0.00 | 0.00 | 0.00 | 78 | 1014.5 |
| 20260507202727 | 54 | 92 | 2.6 | 6.1 | 0.00 | 0.00 | 0.00 | 77 | 1014.3 |
| 20260507201806 | 54 | 96 | 2.6 | 6.1 | 0.00 | 0.00 | 0.00 | 77 | 1014.3 |
| 20260507200905 | 55 | 95 | 2.6 | 7.0 | 0.00 | 0.00 | 0.00 | 76 | 1014.1 |
| 20260507200006 | 55 | 97 | 2.6 | 7.0 | 0.00 | 0.00 | 0.00 | 75 | 1014.0 |
| 20260507195406 | 55 | 96 | 1.7 | 3.5 | 0.00 | 0.00 | 0.00 | 75 | 1014.0 |
| 20260507194505 | 55 | 83 | 2.6 | 7.0 | 0.00 | 0.00 | 0.00 | 74 | 1013.9 |
| 20260507193605 | 55 | 96 | 3.5 | 7.0 | 0.00 | 0.00 | 0.00 | 74 | 1013.9 |
| 20260507192706 | 56 | 75 | 2.6 | 6.1 | 0.00 | 0.00 | 0.00 | 72 | 1013.8 |
| 20260507191827 | 56 | 79 | 4.3 | 7.8 | 0.00 | 0.00 | 0.00 | 71 | 1013.7 |
| 20260507190905 | 56 | 82 | 4.3 | 7.8 | 0.00 | 0.00 | 0.00 | 69 | 1013.6 |
| 20260507190005 | 56 | 87 | 3.5 | 7.0 | 0.00 | 0.00 | 0.00 | 67 | 1013.6 |
| 20260507185405 | 56 | 89 | 3.5 | 6.1 | 0.00 | 0.00 | 0.00 | 66 | 1013.6 |
| 20260507184505 | 56 | 99 | 2.6 | 5.2 | 0.00 | 0.00 | 0.00 | 65 | 1013.7 |
| 20260507183606 | 56 | 119 | 2.6 | 7.0 | 0.00 | 0.00 | 0.00 | 63 | 1013.7 |
| 20260507182704 | 57 | 115 | 2.6 | 6.1 | 0.00 | 0.00 | 0.00 | 60 | 1013.7 |
| 20260507181826 | 57 | 112 | 4.3 | 9.6 | 0.00 | 0.00 | 0.00 | 58 | 1013.6 |
| 20260507180925 | 58 | 112 | 4.3 | 8.7 | 0.00 | 0.00 | 0.00 | 56 | 1013.5 |
| 20260507180005 | 58 | 120 | 3.5 | 8.7 | 0.00 | 0.00 | 0.00 | 56 | 1013.6 |
| 20260507175405 | 58 | 110 | 4.3 | 8.7 | 0.00 | 0.00 | 0.00 | 56 | 1013.5 |
| 20260507174526 | 59 | 110 | 4.3 | 7.8 | 0.00 | 0.00 | 0.00 | 58 | 1013.5 |
| 20260507173626 | 59 | 114 | 4.3 | 7.8 | 0.00 | 0.00 | 0.00 | 58 | 1013.5 |
| 20260507172705 | 59 | 123 | 4.3 | 9.6 | 0.00 | 0.00 | 0.00 | 57 | 1013.5 |
| 20260507171805 | 59 | 128 | 5.2 | 11.3 | 0.00 | 0.00 | 0.00 | 56 | 1013.5 |
| 20260507170926 | 59 | 141 | 5.2 | 9.6 | 0.00 | 0.00 | 0.00 | 55 | 1013.5 |
| 20260507170005 | 60 | 150 | 5.2 | 8.7 | 0.00 | 0.00 | 0.00 | 54 | 1013.5 |
| 20260507165425 | 60 | 148 | 5.2 | 10.4 | 0.00 | 0.00 | 0.00 | 52 | 1013.5 |
| 20260507164505 | 61 | 106 | 5.2 | 8.7 | 0.00 | 0.00 | 0.00 | 49 | 1013.6 |
| 20260507163605 | 61 | 102 | 4.3 | 8.7 | 0.00 | 0.00 | 0.00 | 46 | 1013.5 |
| 20260507162705 | 60 | 113 | 5.2 | 8.7 | 0.00 | 0.00 | 0.00 | 51 | 1013.6 |
| 20260507161805 | 61 | 144 | 4.3 | 7.8 | 0.00 | 0.00 | 0.00 | 53 | 1013.6 |
| 20260507160905 | 61 | 138 | 5.2 | 10.4 | 0.00 | 0.00 | 0.00 | 50 | 1013.7 |
| 20260507160004 | 61 | 130 | 5.2 | 11.3 | 0.00 | 0.00 | 0.00 | 52 | 1013.7 |
| 20260507155404 | 62 | 144 | 5.2 | 11.3 | 0.00 | 0.00 | 0.00 | 50 | 1013.6 |
| 20260507154505 | 62 | 149 | 6.1 | 10.4 | 0.00 | 0.00 | 0.00 | 50 | 1013.8 |
| 20260507153605 | 63 | 134 | 5.2 | 10.4 | 0.00 | 0.00 | 0.00 | 50 | 1013.8 |
| 20260507152705 | 62 | 134 | 6.1 | 13.0 | 0.00 | 0.00 | 0.00 | 51 | 1013.9 |
| 20260507151805 | 62 | 139 | 6.1 | 10.4 | 0.00 | 0.00 | 0.00 | 53 | 1013.9 |
| 20260507150904 | 62 | 141 | 6.1 | 13.9 | 0.00 | 0.00 | 0.00 | 54 | 1014.1 |
| 20260507150006 | 63 | 153 | 5.2 | 11.3 | 0.00 | 0.00 | 0.00 | 57 | 1014.1 |
| 20260507145405 | 62 | 146 | 6.1 | 11.3 | 0.00 | 0.00 | 0.00 | 54 | 1014.1 |
| 20260507144526 | 63 | 152 | 5.2 | 11.3 | 0.00 | 0.00 | 0.00 | 56 | 1014.2 |
| 20260507143605 | 62 | 137 | 7.0 | 11.3 | 0.00 | 0.00 | 0.00 | 55 | 1014.3 |
| 20260507142705 | 63 | 132 | 7.0 | 13.0 | 0.00 | 0.00 | 0.00 | 56 | 1014.2 |
| 20260507141826 | 63 | 140 | 7.0 | 12.2 | 0.00 | 0.00 | 0.00 | 56 | 1014.4 |
| 20260507140926 | 64 | 162 | 6.1 | 10.4 | 0.00 | 0.00 | 0.00 | 54 | 1014.4 |
| 20260507140006 | 62 | 173 | 7.0 | 12.2 | 0.00 | 0.00 | 0.00 | 50 | 1014.5 |
| 20260507135405 | 63 | 171 | 6.1 | 13.0 | 0.00 | 0.00 | 0.00 | 51 | 1014.5 |
| 20260507134505 | 63 | 153 | 5.2 | 11.3 | 0.00 | 0.00 | 0.00 | 50 | 1014.5 |
| 20260507133604 | 64 | 138 | 6.1 | 12.2 | 0.00 | 0.00 | 0.00 | 52 | 1014.4 |
| 20260507132705 | 63 | 129 | 5.2 | 10.4 | 0.00 | 0.00 | 0.00 | 50 | 1014.5 |
| 20260507131804 | 63 | 138 | 6.1 | 14.8 | 0.00 | 0.00 | 0.00 | 50 | 1014.5 |
| 20260507130905 | 63 | 142 | 5.2 | 10.4 | 0.00 | 0.00 | 0.00 | 50 | 1014.6 |
| 20260507130004 | 63 | 141 | 6.1 | 12.2 | 0.00 | 0.00 | 0.00 | 52 | 1014.6 |
| 20260507125405 | 62 | 143 | 7.0 | 13.9 | 0.00 | 0.00 | 0.00 | 51 | 1014.6 |
| 20260507124505 | 63 | 152 | 7.8 | 12.2 | 0.00 | 0.00 | 0.00 | 52 | 1014.7 |
| 20260507123626 | 64 | 135 | 6.1 | 11.3 | 0.00 | 0.00 | 0.00 | 54 | 1014.7 |
| 20260507122705 | 62 | 144 | 7.0 | 13.0 | 0.00 | 0.00 | 0.00 | 56 | 1014.7 |
| 20260507121805 | 62 | 159 | 6.1 | 13.0 | 0.00 | 0.00 | 0.00 | 54 | 1014.8 |
| 20260507120904 | 62 | 160 | 7.0 | 12.2 | 0.00 | 0.00 | 0.00 | 55 | 1014.7 |
| 20260507120005 | 62 | 151 | 7.0 | 14.8 | 0.00 | 0.00 | 0.00 | 55 | 1014.8 |
| 20260507115405 | 62 | 156 | 6.1 | 13.9 | 0.00 | 0.00 | 0.00 | 56 | 1014.8 |
| 20260507114505 | 63 | 151 | 7.0 | 11.3 | 0.00 | 0.00 | 0.00 | 57 | 1014.9 |
| 20260507113605 | 62 | 156 | 6.1 | 13.9 | 0.00 | 0.00 | 0.00 | 60 | 1014.9 |
| 20260507112705 | 62 | 146 | 6.1 | 15.6 | 0.00 | 0.00 | 0.00 | 56 | 1014.9 |
| 20260507111826 | 62 | 148 | 7.0 | 15.6 | 0.00 | 0.00 | 0.00 | 58 | 1015.0 |
| 20260507110925 | 62 | 152 | 6.1 | 12.2 | 0.00 | 0.00 | 0.00 | 59 | 1014.8 |
| 20260507110026 | 61 | 155 | 6.1 | 11.3 | 0.00 | 0.00 | 0.00 | 58 | 1014.9 |
| 20260507105425 | 61 | 158 | 7.0 | 13.9 | 0.00 | 0.00 | 0.00 | 62 | 1015.0 |
| 20260507104504 | 60 | 169 | 7.0 | 13.0 | 0.00 | 0.00 | 0.00 | 64 | 1015.0 |
| 20260507103603 | 60 | 157 | 6.1 | 13.9 | 0.00 | 0.00 | 0.00 | 67 | 1015.1 |
| 20260507102704 | 60 | 145 | 6.1 | 12.2 | 0.00 | 0.00 | 0.00 | 68 | 1015.0 |
| 20260507101825 | 60 | 146 | 6.1 | 12.2 | 0.00 | 0.00 | 0.00 | 68 | 1015.0 |
| 20260507100904 | 60 | 147 | 7.0 | 12.2 | 0.00 | 0.00 | 0.00 | 68 | 1015.0 |
| 20260507100005 | 59 | 148 | 5.2 | 12.2 | 0.00 | 0.00 | 0.00 | 70 | 1015.0 |
| 20260507095403 | 60 | 137 | 5.2 | 8.7 | 0.00 | 0.00 | 0.00 | 70 | 1015.0 |
| 20260507094504 | 59 | 156 | 5.2 | 10.4 | 0.00 | 0.00 | 0.00 | 71 | 1015.0 |
| 20260507093603 | 58 | 160 | 4.3 | 9.6 | 0.00 | 0.00 | 0.00 | 72 | 1015.0 |
| 20260507092703 | 58 | 142 | 4.3 | 9.6 | 0.00 | 0.00 | 0.00 | 71 | 1014.9 |
| 20260507091804 | 57 | 154 | 5.2 | 8.7 | 0.00 | 0.00 | 0.00 | 72 | 1015.0 |
| 20260507090904 | 57 | 137 | 5.2 | 8.7 | 0.00 | 0.00 | 0.00 | 72 | 1014.9 |
| 20260507090004 | 58 | 135 | 3.5 | 9.6 | 0.00 | 0.00 | 0.00 | 74 | 1014.9 |
| 20260507085405 | 58 | 132 | 4.3 | 9.6 | 0.00 | 0.00 | 0.00 | 75 | 1014.9 |
| 20260507084504 | 57 | 147 | 5.2 | 10.4 | 0.00 | 0.00 | 0.00 | 76 | 1014.9 |
| 20260507083604 | 56 | 144 | 4.3 | 9.6 | 0.00 | 0.00 | 0.00 | 78 | 1014.9 |
| 20260507082704 | 56 | 133 | 3.5 | 8.7 | 0.00 | 0.00 | 0.00 | 80 | 1014.8 |
| 20260507081804 | 55 | 123 | 4.3 | 9.6 | 0.00 | 0.00 | 0.00 | 81 | 1014.9 |
| 20260507080925 | 55 | 121 | 4.3 | 8.7 | 0.00 | 0.00 | 0.00 | 82 | 1014.8 |
| 20260507080003 | 55 | 92 | 3.5 | 7.0 | 0.00 | 0.00 | 0.00 | 82 | 1014.9 |
| 20260507075425 | 54 | 85 | 3.5 | 7.0 | 0.00 | 0.00 | 0.00 | 82 | 1014.9 |
| 20260507074504 | 54 | 86 | 3.5 | 7.0 | 0.00 | 0.00 | 0.00 | 82 | 1014.9 |
| 20260507073604 | 54 | 56 | 0.9 | 3.5 | 0.00 | 0.00 | 0.00 | 82 | 1014.9 |
| 20260507072704 | 52 | 55 | 0.9 | 3.5 | 0.00 | 0.00 | 0.00 | 82 | 1014.8 |
| 20260507071803 | 51 | 45 | 1.7 | 3.5 | 0.00 | 0.00 | 0.00 | 83 | 1014.8 |
| 20260507070903 | 50 | 44 | 0.9 | 2.6 | 0.00 | 0.00 | 0.00 | 83 | 1014.8 |
| 20260507070025 | 49 | 44 | 0.0 | 1.7 | 0.00 | 0.00 | 0.00 | 83 | 1014.7 |
| 20260507065403 | 49 | 47 | 0.9 | 1.7 | 0.00 | 0.00 | 0.00 | 83 | 1014.7 |
| 20260507064504 | 49 | 49 | 0.9 | 2.6 | 0.00 | 0.00 | 0.00 | 83 | 1014.8 |
| 20260507063624 | 48 | 53 | 0.9 | 1.7 | 0.00 | 0.00 | 0.00 | 83 | 1014.8 |
| 20260507062703 | 48 | 53 | 0.0 | 0.9 | 0.00 | 0.00 | 0.00 | 83 | 1014.8 |
| 20260507061803 | 48 | 0 | 0.0 | 0.0 | 0.00 | 0.01 | 0.00 | 83 | 1014.7 |
| 20260507060903 | 47 | 54 | 0.0 | 2.6 | 0.00 | 0.01 | 0.00 | 83 | 1014.7 |
| 20260507060003 | 47 | 54 | 0.9 | 2.6 | 0.00 | 0.01 | 0.00 | 82 | 1014.5 |
| 20260507055403 | 47 | 54 | 1.7 | 2.6 | 0.00 | 0.01 | 0.00 | 82 | 1014.4 |
| 20260507054504 | 47 | 54 | 0.9 | 1.7 | 0.00 | 0.01 | 0.00 | 82 | 1014.3 |
| 20260507053604 | 47 | 0 | 0.0 | 0.0 | 0.00 | 0.01 | 0.00 | 82 | 1014.3 |
| 20260507052725 | 46 | 54 | 0.0 | 2.6 | 0.00 | 0.01 | 0.00 | 82 | 1014.1 |
| 20260507051806 | 46 | 55 | 1.7 | 3.5 | 0.00 | 0.01 | 0.00 | 82 | 1014.1 |
| 20260507050906 | 46 | 53 | 0.9 | 2.6 | 0.00 | 0.01 | 0.00 | 82 | 1014.3 |
| 20260507050006 | 46 | 40 | 1.7 | 4.3 | 0.00 | 0.01 | 0.00 | 81 | 1014.2 |
| 20260507045406 | 46 | 37 | 0.9 | 3.5 | 0.00 | 0.01 | 0.00 | 81 | 1014.1 |
| 20260507044507 | 46 | 38 | 0.9 | 2.6 | 0.00 | 0.01 | 0.00 | 81 | 1014.1 |
| 20260507043606 | 46 | 52 | 1.7 | 3.5 | 0.00 | 0.01 | 0.00 | 81 | 1014.1 |
| 20260507042706 | 46 | 45 | 2.6 | 5.2 | 0.00 | 0.01 | 0.00 | 81 | 1014.0 |
| 20260507041827 | 47 | 50 | 1.7 | 4.3 | 0.00 | 0.01 | 0.00 | 80 | 1014.0 |
| 20260507040905 | 47 | 39 | 1.7 | 5.2 | 0.00 | 0.01 | 0.00 | 80 | 1014.1 |
| 20260507040006 | 47 | 42 | 2.6 | 5.2 | 0.00 | 0.01 | 0.00 | 80 | 1014.0 |
| 20260507035406 | 47 | 36 | 1.7 | 4.3 | 0.00 | 0.01 | 0.00 | 80 | 1014.1 |
| 20260507034506 | 47 | 44 | 1.7 | 3.5 | 0.00 | 0.01 | 0.00 | 80 | 1014.0 |
| 20260507033607 | 47 | 46 | 1.7 | 4.3 | 0.00 | 0.01 | 0.00 | 79 | 1013.9 |
| 20260507032705 | 47 | 32 | 1.7 | 3.5 | 0.00 | 0.01 | 0.00 | 79 | 1013.9 |
| 20260507031807 | 47 | 52 | 1.7 | 4.3 | 0.00 | 0.01 | 0.00 | 79 | 1013.9 |
| 20260507030905 | 48 | 51 | 2.6 | 5.2 | 0.00 | 0.01 | 0.00 | 79 | 1013.8 |
| 20260507030028 | 48 | 38 | 1.7 | 3.5 | 0.00 | 0.01 | 0.00 | 79 | 1013.7 |
| 20260507025405 | 48 | 31 | 2.6 | 4.3 | 0.00 | 0.01 | 0.00 | 79 | 1013.6 |
| 20260507024506 | 48 | 31 | 2.6 | 4.3 | 0.00 | 0.01 | 0.00 | 79 | 1013.6 |
| 20260507023605 | 48 | 46 | 2.6 | 5.2 | 0.00 | 0.01 | 0.00 | 79 | 1013.6 |
| 20260507022706 | 48 | 37 | 2.6 | 4.3 | 0.00 | 0.01 | 0.00 | 79 | 1013.6 |
| 20260507021805 | 48 | 35 | 2.6 | 4.3 | 0.00 | 0.01 | 0.00 | 79 | 1013.6 |
| 20260507020927 | 48 | 36 | 1.7 | 3.5 | 0.00 | 0.01 | 0.00 | 80 | 1013.7 |
| 20260507020006 | 48 | 34 | 1.7 | 4.3 | 0.00 | 0.01 | 0.00 | 80 | 1013.7 |
| 20260507015406 | 48 | 30 | 1.7 | 4.3 | 0.00 | 0.01 | 0.00 | 80 | 1013.8 |
| 20260507014505 | 48 | 34 | 1.7 | 3.5 | 0.00 | 0.01 | 0.00 | 80 | 1013.7 |
| 20260507013605 | 48 | 33 | 1.7 | 3.5 | 0.00 | 0.01 | 0.00 | 80 | 1013.7 |
| 20260507012727 | 48 | 32 | 0.9 | 3.5 | 0.00 | 0.01 | 0.00 | 81 | 1013.6 |
| 20260507011826 | 48 | 32 | 1.7 | 2.6 | 0.00 | 0.01 | 0.00 | 81 | 1013.8 |
| 20260507010005 | 49 | 25 | 0.9 | 3.5 | 0.00 | 0.01 | 0.00 | 81 | 1013.7 |
| 20260507005427 | 49 | 25 | 0.9 | 2.6 | 0.00 | 0.01 | 0.00 | 81 | 1013.7 |
| 20260507004506 | 49 | 29 | 0.9 | 3.5 | 0.00 | 0.01 | 0.00 | 81 | 1013.7 |
| 20260507003606 | 49 | 0 | 0.0 | 0.0 | 0.00 | 0.01 | 0.00 | 81 | 1013.7 |
| 20260507002706 | 50 | 278 | 0.0 | 1.7 | 0.00 | 0.01 | 0.00 | 80 | 1013.8 |
| 20260507001806 | 50 | 278 | 0.0 | 1.7 | 0.00 | 0.01 | 0.00 | 80 | 1013.9 |
| 20260507000906 | 50 | 0 | 0.0 | 0.0 | 0.00 | 0.01 | 0.00 | 80 | 1013.8 |
| 20260507000006 | 50 | 0 | 0.0 | 0.0 | 0.00 | 0.01 | 0.00 | 79 | 1013.8 |
| 20260506235405 | 50 | 0 | 0.0 | 0.0 | 0.00 | 0.01 | 0.00 | 79 | 1013.8 |